KLM653 EHAM-PANC
Flight info
| Callsign | KLM653 |
|---|---|
| Flight time | N/A |
| Altitude | 38000 |
| Route | BERGI DCT LONAM DCT SOSAR/M083F380 DCT 69N010W 75N020W 80N040W/M084F400 82N060W/N0489F400 82N070W 82N080W 81N100W 78N120W 75N130W DCT ADREW J160 FYU J120 FAI DCT PUYVO TAGER9 |
| Aircraft | B772/H-SDE2E3FGHIJ5LORVWXY/LB1D1 |
Departure
| Time | 2026-05-04 07:46 |
|---|---|
| Airport | Amsterdam Airport Schiphol (EHAM) |
Arrival
| Time | N/A |
|---|---|
| Airport | Ted Stevens Anchorage International Airport (PANC) |
| Time | Latitude | Longitude | Altitude | Speed | Heading |
|---|---|---|---|---|---|
| 2026-05-04 06:50 | 52.30798 | 4.76715 | 3 ft | 0 kts | 339° |
| 2026-05-04 07:33 | 52.30791 | 4.76719 | 3 ft | 3 kts | 339° |
| 2026-05-04 07:33 | 52.30772 | 4.76731 | 3 ft | 3 kts | 339° |
| 2026-05-04 07:33 | 52.30754 | 4.76742 | 4 ft | 3 kts | 345° |
| 2026-05-04 07:34 | 52.30737 | 4.76746 | 5 ft | 2 kts | 2° |
| 2026-05-04 07:34 | 52.30718 | 4.76743 | 5 ft | 3 kts | 11° |
| 2026-05-04 07:34 | 52.30705 | 4.76741 | 5 ft | 2 kts | 340° |
| 2026-05-04 07:34 | 52.30689 | 4.76754 | 5 ft | 3 kts | 326° |
| 2026-05-04 07:35 | 52.30673 | 4.76773 | 4 ft | 3 kts | 322° |
| 2026-05-04 07:35 | 52.30657 | 4.76793 | 5 ft | 3 kts | 321° |
| 2026-05-04 07:35 | 52.30641 | 4.76815 | 5 ft | 3 kts | 320° |
| 2026-05-04 07:35 | 52.30627 | 4.76835 | 5 ft | 2 kts | 320° |
| 2026-05-04 07:36 | 52.30615 | 4.76850 | 7 ft | 2 kts | 320° |
| 2026-05-04 07:36 | 52.30606 | 4.76862 | 5 ft | 1 kts | 321° |
| 2026-05-04 07:38 | 52.30581 | 4.76893 | 3 ft | 0 kts | 327° |
| 2026-05-04 07:39 | 52.30581 | 4.76892 | 3 ft | 2 kts | 327° |
| 2026-05-04 07:40 | 52.30634 | 4.76868 | 3 ft | 9 kts | 8° |
| 2026-05-04 07:40 | 52.30656 | 4.76931 | 3 ft | 6 kts | 94° |
| 2026-05-04 07:40 | 52.30653 | 4.76996 | 3 ft | 6 kts | 93° |
| 2026-05-04 07:40 | 52.30651 | 4.77054 | 3 ft | 5 kts | 92° |
| 2026-05-04 07:41 | 52.30650 | 4.77111 | 3 ft | 5 kts | 92° |
| 2026-05-04 07:41 | 52.30649 | 4.77157 | 3 ft | 0 kts | 92° |
| 2026-05-04 07:42 | 52.30649 | 4.77159 | 3 ft | 2 kts | 92° |
| 2026-05-04 07:42 | 52.30643 | 4.77298 | 3 ft | 15 kts | 93° |
| 2026-05-04 07:42 | 52.30634 | 4.77463 | 3 ft | 12 kts | 111° |
| 2026-05-04 07:43 | 52.30580 | 4.77533 | 3 ft | 8 kts | 153° |
| 2026-05-04 07:43 | 52.30577 | 4.77535 | 3 ft | 0 kts | 153° |
| 2026-05-04 07:43 | 52.30571 | 4.77540 | 3 ft | 7 kts | 153° |
| 2026-05-04 07:43 | 52.30490 | 4.77609 | 3 ft | 14 kts | 152° |
| 2026-05-04 07:44 | 52.30411 | 4.77624 | 4 ft | 11 kts | 211° |
| 2026-05-04 07:44 | 52.30383 | 4.77558 | 2 ft | 0 kts | 239° |
| 2026-05-04 07:45 | 52.30379 | 4.77547 | 2 ft | 9 kts | 239° |
| 2026-05-04 07:45 | 52.30236 | 4.77173 | 1 ft | 75 kts | 238° |
| 2026-05-04 07:45 | 52.29835 | 4.76129 | 1 ft | 140 kts | 238° |
| 2026-05-04 07:46 | 52.29223 | 4.74598 | 258 ft | 170 kts | 237° |
| 2026-05-04 07:46 | 52.28596 | 4.72979 | 998 ft | 169 kts | 237° |
| 2026-05-04 07:46 | 52.27974 | 4.71335 | 1764 ft | 170 kts | 238° |
| 2026-05-04 07:46 | 52.27303 | 4.69670 | 2181 ft | 185 kts | 229° |
| 2026-05-04 07:47 | 52.26334 | 4.68152 | 2536 ft | 203 kts | 222° |
| 2026-05-04 07:47 | 52.25254 | 4.66522 | 2825 ft | 221 kts | 224° |
| 2026-05-04 07:47 | 52.24224 | 4.64545 | 3018 ft | 239 kts | 244° |
| 2026-05-04 07:49 | 52.28926 | 4.48900 | 6870 ft | 272 kts | 328° |
| 2026-05-04 07:49 | 52.30556 | 4.47298 | 7484 ft | 274 kts | 327° |
| 2026-05-04 07:49 | 52.32195 | 4.45674 | 8091 ft | 277 kts | 327° |
| 2026-05-04 07:50 | 52.33849 | 4.44028 | 8655 ft | 280 kts | 327° |
| 2026-05-04 07:50 | 52.35531 | 4.42416 | 9209 ft | 280 kts | 333° |
| 2026-05-04 07:50 | 52.37443 | 4.41666 | 9502 ft | 289 kts | 352° |
| 2026-05-04 07:50 | 52.39471 | 4.41391 | 9956 ft | 294 kts | 353° |
| 2026-05-04 07:51 | 52.41534 | 4.41105 | 10285 ft | 305 kts | 352° |
| 2026-05-04 07:51 | 52.43707 | 4.40791 | 10423 ft | 323 kts | 352° |
| 2026-05-04 07:51 | 52.46007 | 4.40449 | 10568 ft | 341 kts | 352° |
| 2026-05-04 07:51 | 52.48410 | 4.40083 | 10721 ft | 362 kts | 352° |
| 2026-05-04 07:52 | 52.50961 | 4.39690 | 11154 ft | 374 kts | 352° |
| 2026-05-04 07:52 | 52.53584 | 4.39282 | 11789 ft | 382 kts | 352° |
| 2026-05-04 07:52 | 52.56247 | 4.38865 | 12600 ft | 386 kts | 352° |
| 2026-05-04 07:52 | 52.58931 | 4.38443 | 13448 ft | 389 kts | 352° |
| 2026-05-04 07:53 | 52.61602 | 4.38019 | 14171 ft | 393 kts | 352° |
| 2026-05-04 07:54 | 52.81280 | 4.33861 | 18524 ft | 420 kts | 343° |
| 2026-05-04 07:55 | 52.84127 | 4.32705 | 19052 ft | 423 kts | 342° |
| 2026-05-04 07:55 | 52.86996 | 4.31537 | 19585 ft | 426 kts | 343° |
| 2026-05-04 07:55 | 52.89889 | 4.30382 | 20110 ft | 429 kts | 343° |
| 2026-05-04 07:55 | 52.92805 | 4.29245 | 20623 ft | 432 kts | 343° |
| 2026-05-04 07:56 | 52.95744 | 4.28119 | 21122 ft | 435 kts | 343° |
| 2026-05-04 07:56 | 52.98706 | 4.26998 | 21609 ft | 439 kts | 343° |
| 2026-05-04 07:56 | 53.01692 | 4.25873 | 22096 ft | 442 kts | 343° |
| 2026-05-04 07:56 | 53.04703 | 4.24742 | 22587 ft | 445 kts | 343° |
| 2026-05-04 07:57 | 53.07729 | 4.23603 | 23076 ft | 448 kts | 343° |
| 2026-05-04 07:57 | 53.10779 | 4.22453 | 23552 ft | 451 kts | 343° |
| 2026-05-04 07:57 | 53.13845 | 4.21296 | 23942 ft | 454 kts | 343° |
| 2026-05-04 07:57 | 53.16940 | 4.20124 | 24300 ft | 457 kts | 343° |
| 2026-05-04 07:58 | 53.20050 | 4.18944 | 24676 ft | 460 kts | 342° |
| 2026-05-04 07:58 | 53.23181 | 4.17755 | 25042 ft | 463 kts | 342° |
| 2026-05-04 07:58 | 53.26336 | 4.16555 | 25399 ft | 466 kts | 342° |
| 2026-05-04 07:58 | 53.29510 | 4.15345 | 25756 ft | 469 kts | 342° |
| 2026-05-04 07:59 | 53.32699 | 4.14128 | 26112 ft | 472 kts | 342° |
| 2026-05-04 07:59 | 53.35910 | 4.12902 | 26474 ft | 475 kts | 342° |
| 2026-05-04 07:59 | 53.39141 | 4.11665 | 26827 ft | 477 kts | 342° |
| 2026-05-04 07:59 | 53.42390 | 4.10419 | 27181 ft | 480 kts | 341° |
| 2026-05-04 08:00 | 53.45651 | 4.09168 | 27528 ft | 483 kts | 341° |
| 2026-05-04 08:00 | 53.48935 | 4.07905 | 27868 ft | 485 kts | 341° |
| 2026-05-04 08:00 | 53.52232 | 4.06635 | 28207 ft | 487 kts | 342° |
| 2026-05-04 08:02 | 53.74539 | 3.97995 | 30235 ft | 497 kts | 342° |
| 2026-05-04 08:02 | 53.78992 | 3.96261 | 30748 ft | 494 kts | 343° |
| 2026-05-04 08:02 | 53.81248 | 3.95380 | 31010 ft | 492 kts | 343° |
| 2026-05-04 08:03 | 53.84551 | 3.93935 | 31379 ft | 488 kts | 339° |
| 2026-05-04 08:03 | 53.87730 | 3.92001 | 31709 ft | 484 kts | 335° |
| 2026-05-04 08:03 | 53.90858 | 3.89891 | 32008 ft | 484 kts | 334° |
| 2026-05-04 08:03 | 53.93975 | 3.87739 | 32337 ft | 483 kts | 334° |
| 2026-05-04 08:04 | 53.97085 | 3.85581 | 32682 ft | 482 kts | 335° |
| 2026-05-04 08:04 | 54.00183 | 3.83440 | 33031 ft | 481 kts | 335° |
| 2026-05-04 08:04 | 54.03283 | 3.81310 | 33363 ft | 480 kts | 335° |
| 2026-05-04 08:04 | 54.06375 | 3.79196 | 33690 ft | 479 kts | 335° |
| 2026-05-04 08:05 | 54.09466 | 3.77090 | 34022 ft | 478 kts | 335° |
| 2026-05-04 08:05 | 54.12514 | 3.75014 | 34278 ft | 478 kts | 336° |
| 2026-05-04 08:05 | 54.15641 | 3.72884 | 34509 ft | 478 kts | 336° |
| 2026-05-04 08:05 | 54.18726 | 3.70779 | 34743 ft | 478 kts | 336° |
| 2026-05-04 08:06 | 54.21776 | 3.68695 | 34989 ft | 478 kts | 336° |
| 2026-05-04 08:06 | 54.24861 | 3.66583 | 35209 ft | 478 kts | 336° |
| 2026-05-04 08:06 | 54.27947 | 3.64466 | 35442 ft | 478 kts | 336° |
| 2026-05-04 08:06 | 54.31072 | 3.62318 | 35670 ft | 478 kts | 336° |
| 2026-05-04 08:08 | 54.52728 | 3.47339 | 36032 ft | 475 kts | 336° |
| 2026-05-04 08:08 | 54.55790 | 3.45207 | 36037 ft | 475 kts | 336° |
| 2026-05-04 08:11 | 54.83352 | 3.25856 | 36038 ft | 475 kts | 336° |
| 2026-05-04 08:11 | 54.92513 | 3.19361 | 36027 ft | 474 kts | 336° |
| 2026-05-04 08:12 | 54.98611 | 3.15020 | 36029 ft | 473 kts | 336° |
| 2026-05-04 08:12 | 55.04695 | 3.10674 | 36032 ft | 472 kts | 336° |
| 2026-05-04 08:13 | 55.10775 | 3.06318 | 36034 ft | 472 kts | 336° |
| 2026-05-04 08:13 | 55.16840 | 3.01957 | 36032 ft | 471 kts | 336° |
| 2026-05-04 08:14 | 55.22897 | 2.97588 | 36042 ft | 470 kts | 336° |
| 2026-05-04 08:16 | 55.46963 | 2.80085 | 36038 ft | 467 kts | 336° |
| 2026-05-04 08:16 | 55.52967 | 2.75682 | 36037 ft | 467 kts | 336° |
| 2026-05-04 08:17 | 55.58950 | 2.71280 | 36039 ft | 466 kts | 337° |
| 2026-05-04 08:17 | 55.64928 | 2.66867 | 36036 ft | 465 kts | 337° |
| 2026-05-04 08:19 | 55.88716 | 2.49161 | 36040 ft | 462 kts | 336° |
| 2026-05-04 08:20 | 55.94637 | 2.44718 | 36037 ft | 461 kts | 336° |
| 2026-05-04 08:20 | 56.00547 | 2.40267 | 36035 ft | 460 kts | 336° |
| 2026-05-04 08:21 | 56.06436 | 2.35818 | 36033 ft | 460 kts | 336° |
| 2026-05-04 08:21 | 56.12291 | 2.31379 | 36033 ft | 459 kts | 336° |
| 2026-05-04 08:22 | 56.18203 | 2.26883 | 36030 ft | 458 kts | 336° |
| 2026-05-04 08:24 | 56.41596 | 2.08942 | 36030 ft | 457 kts | 336° |
| 2026-05-04 08:24 | 56.47441 | 2.04422 | 36025 ft | 457 kts | 336° |
| 2026-05-04 08:25 | 56.53278 | 1.99892 | 36022 ft | 456 kts | 335° |
| 2026-05-04 08:25 | 56.59114 | 1.95348 | 36026 ft | 456 kts | 335° |
| 2026-05-04 08:27 | 56.82371 | 1.77087 | 36024 ft | 454 kts | 335° |
| 2026-05-04 08:28 | 56.88172 | 1.72494 | 36018 ft | 454 kts | 335° |
| 2026-05-04 08:28 | 56.93962 | 1.67893 | 36017 ft | 454 kts | 335° |
| 2026-05-04 08:29 | 56.99751 | 1.63278 | 36014 ft | 453 kts | 334° |
| 2026-05-04 08:31 | 57.22910 | 1.44655 | 36619 ft | 456 kts | 334° |
| 2026-05-04 08:33 | 57.43324 | 1.28026 | 37842 ft | 460 kts | 333° |
| 2026-05-04 08:33 | 57.46260 | 1.25617 | 37927 ft | 462 kts | 333° |
| 2026-05-04 08:35 | 57.69649 | 1.06283 | 37994 ft | 456 kts | 333° |
| 2026-05-04 08:35 | 57.75441 | 1.01450 | 37990 ft | 455 kts | 333° |
| 2026-05-04 08:37 | 57.95697 | 0.84417 | 37984 ft | 457 kts | 332° |
| 2026-05-04 08:38 | 58.01506 | 0.79493 | 37983 ft | 458 kts | 332° |
| 2026-05-04 08:38 | 58.07324 | 0.74545 | 37986 ft | 459 kts | 332° |
| 2026-05-04 08:40 | 58.30661 | 0.54516 | 37969 ft | 460 kts | 332° |
| 2026-05-04 08:41 | 58.36484 | 0.49473 | 37963 ft | 459 kts | 332° |
| 2026-05-04 08:41 | 58.42297 | 0.44420 | 37966 ft | 459 kts | 332° |
| 2026-05-04 08:42 | 58.48095 | 0.39362 | 37957 ft | 458 kts | 332° |
| 2026-05-04 08:42 | 58.53874 | 0.34302 | 37962 ft | 457 kts | 332° |
| 2026-05-04 08:43 | 58.59643 | 0.29233 | 37956 ft | 456 kts | 332° |
| 2026-05-04 08:43 | 58.65397 | 0.24157 | 37954 ft | 455 kts | 331° |
| 2026-05-04 08:44 | 58.71102 | 0.19107 | 37955 ft | 454 kts | 331° |
| 2026-05-04 08:46 | 58.93962 | -0.01314 | 37949 ft | 451 kts | 331° |
| 2026-05-04 08:46 | 58.99650 | -0.06441 | 37941 ft | 451 kts | 331° |
| 2026-05-04 08:47 | 59.05329 | -0.11580 | 37942 ft | 450 kts | 330° |
| 2026-05-04 08:47 | 59.11001 | -0.16731 | 37934 ft | 450 kts | 330° |
| 2026-05-04 08:48 | 59.16665 | -0.21894 | 37925 ft | 450 kts | 330° |
| 2026-05-04 08:48 | 59.22332 | -0.27079 | 37926 ft | 450 kts | 330° |
| 2026-05-04 08:49 | 59.28002 | -0.32286 | 37920 ft | 451 kts | 330° |
| 2026-05-04 08:50 | 59.46967 | -0.49841 | 37911 ft | 454 kts | 330° |
| 2026-05-04 08:51 | 59.52680 | -0.55172 | 37918 ft | 455 kts | 330° |
| 2026-05-04 08:51 | 59.58393 | -0.60523 | 37913 ft | 455 kts | 330° |
| 2026-05-04 08:52 | 59.64106 | -0.65893 | 37910 ft | 454 kts | 330° |
| 2026-05-04 08:52 | 59.69807 | -0.71273 | 37906 ft | 454 kts | 330° |
| 2026-05-04 08:54 | 59.92491 | -0.92887 | 37896 ft | 451 kts | 329° |
| 2026-05-04 08:55 | 59.98107 | -0.98289 | 37895 ft | 451 kts | 329° |
| 2026-05-04 08:55 | 60.03752 | -1.03740 | 37896 ft | 451 kts | 329° |
| 2026-05-04 09:01 | 60.63578 | -1.62811 | 37945 ft | 458 kts | 328° |
| 2026-05-04 09:01 | 60.69284 | -1.68575 | 37945 ft | 457 kts | 328° |
| 2026-05-04 09:02 | 60.74983 | -1.74353 | 37944 ft | 457 kts | 328° |
| 2026-05-04 09:02 | 60.80677 | -1.80150 | 37951 ft | 457 kts | 328° |
| 2026-05-04 09:03 | 60.86329 | -1.85927 | 37953 ft | 456 kts | 328° |
| 2026-05-04 09:03 | 60.92004 | -1.91752 | 37957 ft | 456 kts | 328° |
| 2026-05-04 09:04 | 60.97717 | -1.97636 | 37960 ft | 456 kts | 328° |
| 2026-05-04 09:04 | 61.03541 | -2.02744 | 37963 ft | 460 kts | 335° |
| 2026-05-04 09:05 | 61.09595 | -2.07099 | 37962 ft | 461 kts | 335° |
| 2026-05-04 09:05 | 61.15660 | -2.11425 | 37963 ft | 461 kts | 335° |
| 2026-05-04 09:06 | 61.21716 | -2.15817 | 37962 ft | 461 kts | 335° |
| 2026-05-04 09:08 | 61.45883 | -2.33699 | 37961 ft | 461 kts | 335° |
| 2026-05-04 09:08 | 61.51920 | -2.38213 | 37962 ft | 461 kts | 335° |
| 2026-05-04 09:09 | 61.57957 | -2.42745 | 37965 ft | 461 kts | 335° |
| 2026-05-04 09:09 | 61.63996 | -2.47298 | 37967 ft | 461 kts | 335° |
| 2026-05-04 09:10 | 61.70032 | -2.51867 | 37965 ft | 461 kts | 335° |
| 2026-05-04 09:10 | 61.76064 | -2.56452 | 37962 ft | 461 kts | 335° |
| 2026-05-04 09:11 | 61.82100 | -2.61060 | 37962 ft | 461 kts | 335° |
| 2026-05-04 09:11 | 61.88138 | -2.65688 | 37967 ft | 461 kts | 335° |
| 2026-05-04 09:12 | 61.94170 | -2.70332 | 37970 ft | 461 kts | 335° |
| 2026-05-04 09:14 | 62.18259 | -2.89071 | 37970 ft | 461 kts | 335° |
| 2026-05-04 09:14 | 62.24286 | -2.93809 | 37969 ft | 461 kts | 335° |
| 2026-05-04 09:15 | 62.30308 | -2.98565 | 37967 ft | 461 kts | 335° |
| 2026-05-04 09:15 | 62.36332 | -3.03342 | 37965 ft | 461 kts | 335° |
| 2026-05-04 09:17 | 62.63445 | -3.25099 | 37963 ft | 463 kts | 335° |
| 2026-05-04 09:18 | 62.69479 | -3.29998 | 37969 ft | 463 kts | 335° |
| 2026-05-04 09:18 | 62.75521 | -3.34927 | 37968 ft | 464 kts | 335° |
| 2026-05-04 09:19 | 62.81532 | -3.39850 | 37965 ft | 465 kts | 335° |
| 2026-05-04 09:19 | 62.87585 | -3.44831 | 37971 ft | 465 kts | 335° |
| 2026-05-04 09:20 | 62.93647 | -3.49840 | 37966 ft | 466 kts | 335° |
| 2026-05-04 09:20 | 62.99712 | -3.54874 | 37964 ft | 466 kts | 335° |
| 2026-05-04 09:21 | 63.05773 | -3.59927 | 37962 ft | 466 kts | 335° |
| 2026-05-04 09:21 | 63.11832 | -3.65001 | 37965 ft | 465 kts | 335° |
| 2026-05-04 09:22 | 63.17885 | -3.70093 | 37962 ft | 465 kts | 335° |
| 2026-05-04 09:22 | 63.23926 | -3.75198 | 37963 ft | 465 kts | 335° |
| 2026-05-04 09:23 | 63.29962 | -3.80321 | 37957 ft | 464 kts | 335° |
| 2026-05-04 09:23 | 63.35988 | -3.85459 | 37958 ft | 464 kts | 335° |
| 2026-05-04 09:25 | 63.60014 | -4.06177 | 37954 ft | 462 kts | 335° |
| 2026-05-04 09:26 | 63.66002 | -4.11399 | 37953 ft | 462 kts | 334° |
| 2026-05-04 09:26 | 63.71990 | -4.16646 | 37952 ft | 462 kts | 334° |
| 2026-05-04 09:27 | 63.77979 | -4.21917 | 37953 ft | 462 kts | 334° |
| 2026-05-04 09:27 | 63.83970 | -4.27214 | 37953 ft | 463 kts | 334° |
| 2026-05-04 09:28 | 63.89929 | -4.32506 | 37948 ft | 463 kts | 334° |
| 2026-05-04 09:28 | 63.95928 | -4.37859 | 37942 ft | 464 kts | 334° |
| 2026-05-04 09:29 | 64.01937 | -4.43245 | 37940 ft | 464 kts | 334° |
| 2026-05-04 09:29 | 64.07957 | -4.48667 | 37939 ft | 465 kts | 334° |
| 2026-05-04 09:30 | 64.13982 | -4.54118 | 37942 ft | 466 kts | 334° |
| 2026-05-04 09:30 | 64.20010 | -4.59597 | 37938 ft | 467 kts | 334° |
| 2026-05-04 09:31 | 64.26044 | -4.65108 | 37934 ft | 467 kts | 334° |
| 2026-05-04 09:31 | 64.32087 | -4.70653 | 37927 ft | 467 kts | 334° |
| 2026-05-04 09:32 | 64.38131 | -4.76225 | 37924 ft | 468 kts | 334° |
| 2026-05-04 09:34 | 64.62302 | -4.98776 | 37919 ft | 469 kts | 334° |
| 2026-05-04 09:34 | 64.68348 | -5.04485 | 37915 ft | 469 kts | 334° |
| 2026-05-04 09:35 | 64.74359 | -5.10188 | 37909 ft | 469 kts | 334° |
| 2026-05-04 09:35 | 64.80449 | -5.15995 | 37910 ft | 469 kts | 334° |
| 2026-05-04 09:37 | 65.04616 | -5.39318 | 37887 ft | 470 kts | 335° |
| 2026-05-04 09:38 | 65.10665 | -5.45227 | 37893 ft | 471 kts | 335° |
| 2026-05-04 09:38 | 65.16721 | -5.51174 | 37885 ft | 471 kts | 335° |
| 2026-05-04 09:39 | 65.22772 | -5.57145 | 37882 ft | 471 kts | 335° |
| 2026-05-04 09:39 | 65.28818 | -5.63140 | 37875 ft | 471 kts | 335° |
| 2026-05-04 09:40 | 65.33851 | -5.68153 | 37872 ft | 471 kts | 335° |
| 2026-05-04 09:40 | 65.39904 | -5.74211 | 37870 ft | 471 kts | 335° |
| 2026-05-04 09:42 | 65.64097 | -5.98729 | 37848 ft | 471 kts | 334° |
| 2026-05-04 09:43 | 65.70132 | -6.04923 | 37843 ft | 471 kts | 334° |
| 2026-05-04 09:43 | 65.76160 | -6.11141 | 37837 ft | 471 kts | 334° |
| 2026-05-04 09:44 | 65.82188 | -6.17389 | 37835 ft | 471 kts | 334° |
| 2026-05-04 09:46 | 66.06245 | -6.42656 | 37809 ft | 469 kts | 334° |
| 2026-05-04 09:46 | 66.12231 | -6.49022 | 37801 ft | 468 kts | 334° |
| 2026-05-04 09:47 | 66.18210 | -6.55413 | 37794 ft | 467 kts | 334° |
| 2026-05-04 09:49 | 66.41896 | -6.81068 | 37776 ft | 462 kts | 334° |
| 2026-05-04 09:51 | 66.62497 | -7.03821 | 37758 ft | 464 kts | 334° |
| 2026-05-04 09:51 | 66.68388 | -7.10401 | 37739 ft | 462 kts | 334° |
| 2026-05-04 09:52 | 66.74258 | -7.16993 | 37747 ft | 464 kts | 334° |
| 2026-05-04 09:52 | 66.80192 | -7.23696 | 37744 ft | 470 kts | 334° |
| 2026-05-04 09:53 | 66.86202 | -7.30522 | 37739 ft | 475 kts | 334° |
| 2026-05-04 09:53 | 66.92267 | -7.37443 | 37731 ft | 479 kts | 334° |
| 2026-05-04 09:54 | 66.98366 | -7.44442 | 37712 ft | 481 kts | 334° |
| 2026-05-04 09:54 | 67.04453 | -7.51462 | 37707 ft | 479 kts | 334° |
| 2026-05-04 09:55 | 67.10513 | -7.58492 | 37707 ft | 477 kts | 334° |
| 2026-05-04 09:55 | 67.16516 | -7.65496 | 37695 ft | 471 kts | 334° |
| 2026-05-04 09:56 | 67.22467 | -7.72478 | 37703 ft | 469 kts | 334° |
| 2026-05-04 09:56 | 67.28390 | -7.79465 | 37706 ft | 468 kts | 334° |
| 2026-05-04 09:57 | 67.34311 | -7.86488 | 37705 ft | 469 kts | 334° |
| 2026-05-04 09:57 | 67.40255 | -7.93577 | 37702 ft | 471 kts | 334° |
| 2026-05-04 09:58 | 67.46227 | -8.00739 | 37704 ft | 474 kts | 334° |
| 2026-05-04 09:58 | 67.52232 | -8.07979 | 37704 ft | 476 kts | 334° |
| 2026-05-04 10:00 | 67.76315 | -8.37431 | 37706 ft | 478 kts | 334° |
| 2026-05-04 10:04 | 68.18127 | -8.90195 | 37742 ft | 471 kts | 334° |
| 2026-05-04 10:04 | 68.24040 | -8.97830 | 37748 ft | 471 kts | 333° |
| 2026-05-04 10:05 | 68.29933 | -9.05484 | 37747 ft | 469 kts | 333° |
| 2026-05-04 10:05 | 68.35754 | -9.13087 | 37755 ft | 464 kts | 333° |
| 2026-05-04 10:06 | 68.41499 | -9.20633 | 37767 ft | 459 kts | 333° |
| 2026-05-04 10:06 | 68.47285 | -9.28279 | 37772 ft | 462 kts | 333° |
| 2026-05-04 10:08 | 68.67412 | -9.55212 | 37800 ft | 462 kts | 333° |
| 2026-05-04 10:08 | 68.73153 | -9.62996 | 37801 ft | 457 kts | 333° |
| 2026-05-04 10:09 | 68.78881 | -9.70808 | 37815 ft | 461 kts | 333° |
| 2026-05-04 10:09 | 68.84606 | -9.78656 | 37816 ft | 457 kts | 333° |
| 2026-05-04 10:10 | 68.90315 | -9.86533 | 37828 ft | 460 kts | 333° |
| 2026-05-04 10:10 | 68.96048 | -9.94485 | 37834 ft | 461 kts | 333° |
| 2026-05-04 10:11 | 69.01819 | -10.02269 | 37834 ft | 460 kts | 335° |
| 2026-05-04 10:11 | 69.07720 | -10.09220 | 37840 ft | 461 kts | 336° |
| 2026-05-04 10:12 | 69.13652 | -10.16024 | 37847 ft | 460 kts | 336° |
| 2026-05-04 10:12 | 69.19537 | -10.22869 | 37856 ft | 461 kts | 336° |
| 2026-05-04 10:13 | 69.25448 | -10.29848 | 37860 ft | 460 kts | 336° |
| 2026-05-04 10:13 | 69.31354 | -10.36892 | 37862 ft | 462 kts | 336° |
| 2026-05-04 10:14 | 69.37287 | -10.44014 | 37863 ft | 462 kts | 336° |
| 2026-05-04 10:16 | 69.60871 | -10.72733 | 37891 ft | 460 kts | 336° |
| 2026-05-04 10:16 | 69.66798 | -10.80060 | 37902 ft | 466 kts | 336° |
| 2026-05-04 10:17 | 69.72689 | -10.87388 | 37899 ft | 459 kts | 336° |
| 2026-05-04 10:19 | 69.96145 | -11.17003 | 37926 ft | 463 kts | 335° |
| 2026-05-04 10:19 | 70.00089 | -11.22055 | 37926 ft | 461 kts | 335° |
| 2026-05-04 10:21 | 70.19408 | -11.47106 | 37951 ft | 461 kts | 335° |
| 2026-05-04 10:21 | 70.25315 | -11.54870 | 37960 ft | 466 kts | 335° |
| 2026-05-04 10:22 | 70.34137 | -11.66553 | 37963 ft | 465 kts | 335° |
| 2026-05-04 10:23 | 70.40027 | -11.74419 | 37971 ft | 462 kts | 335° |
| 2026-05-04 10:25 | 70.63570 | -12.06359 | 37978 ft | 464 kts | 335° |
| 2026-05-04 10:25 | 70.69415 | -12.14413 | 38009 ft | 464 kts | 335° |
| 2026-05-04 10:26 | 70.75295 | -12.22572 | 37981 ft | 458 kts | 335° |
| 2026-05-04 10:26 | 70.81112 | -12.30696 | 38006 ft | 465 kts | 335° |
| 2026-05-04 10:27 | 70.87017 | -12.38995 | 38003 ft | 468 kts | 335° |
| 2026-05-04 10:27 | 70.92855 | -12.47253 | 38012 ft | 461 kts | 335° |
| 2026-05-04 10:28 | 70.98719 | -12.55604 | 38019 ft | 467 kts | 335° |
| 2026-05-04 10:28 | 71.04559 | -12.63975 | 38023 ft | 463 kts | 335° |
| 2026-05-04 10:29 | 71.10441 | -12.72463 | 38026 ft | 469 kts | 335° |
| 2026-05-04 10:29 | 71.16294 | -12.80966 | 38014 ft | 458 kts | 335° |
| 2026-05-04 10:30 | 71.22066 | -12.89404 | 38042 ft | 466 kts | 335° |
| 2026-05-04 10:30 | 71.27947 | -12.98059 | 38040 ft | 466 kts | 335° |
| 2026-05-04 10:31 | 71.33787 | -13.06715 | 38056 ft | 466 kts | 335° |
| 2026-05-04 10:32 | 71.54247 | -13.37495 | 38072 ft | 466 kts | 334° |
| 2026-05-04 10:33 | 71.60107 | -13.46449 | 38075 ft | 468 kts | 334° |
| 2026-05-04 10:33 | 71.65936 | -13.55415 | 38078 ft | 465 kts | 334° |
| 2026-05-04 10:34 | 71.71769 | -13.64449 | 38074 ft | 464 kts | 334° |
| 2026-05-04 10:34 | 71.77596 | -13.73537 | 38086 ft | 469 kts | 334° |
| 2026-05-04 10:35 | 71.83423 | -13.82688 | 38091 ft | 466 kts | 334° |
| 2026-05-04 10:35 | 71.89239 | -13.91885 | 38096 ft | 465 kts | 334° |
| 2026-05-04 10:36 | 71.95047 | -14.01134 | 38107 ft | 467 kts | 334° |
| 2026-05-04 10:36 | 72.00887 | -14.10495 | 38107 ft | 470 kts | 334° |
| 2026-05-04 10:37 | 72.06701 | -14.19884 | 38111 ft | 465 kts | 334° |
| 2026-05-04 10:37 | 72.12529 | -14.29358 | 38128 ft | 470 kts | 334° |
| 2026-05-04 10:39 | 72.32876 | -14.62985 | 38136 ft | 471 kts | 334° |
| 2026-05-04 10:40 | 72.38663 | -14.72701 | 38127 ft | 466 kts | 334° |
| 2026-05-04 10:40 | 72.44467 | -14.82520 | 38144 ft | 470 kts | 334° |
| 2026-05-04 10:41 | 72.50265 | -14.92400 | 38138 ft | 466 kts | 333° |
| 2026-05-04 10:41 | 72.56066 | -15.02354 | 38162 ft | 472 kts | 333° |
| 2026-05-04 10:42 | 72.61879 | -15.12406 | 38154 ft | 466 kts | 333° |
| 2026-05-04 10:42 | 72.67672 | -15.22494 | 38171 ft | 473 kts | 333° |
| 2026-05-04 10:43 | 72.72568 | -15.31074 | 38169 ft | 473 kts | 333° |
| 2026-05-04 10:45 | 72.95699 | -15.72372 | 38189 ft | 471 kts | 333° |
| 2026-05-04 10:45 | 73.01472 | -15.82870 | 38198 ft | 470 kts | 333° |
| 2026-05-04 10:46 | 73.07251 | -15.93462 | 38209 ft | 472 kts | 333° |
| 2026-05-04 10:46 | 73.13015 | -16.04106 | 38216 ft | 471 kts | 333° |
| 2026-05-04 10:47 | 73.18794 | -16.14860 | 38213 ft | 471 kts | 333° |
| 2026-05-04 10:47 | 73.24550 | -16.25651 | 38218 ft | 472 kts | 333° |
| 2026-05-04 10:49 | 73.47606 | -16.69719 | 38241 ft | 474 kts | 332° |
| 2026-05-04 10:50 | 73.53353 | -16.80913 | 38244 ft | 471 kts | 332° |
| 2026-05-04 10:51 | 73.73630 | -17.21146 | 38265 ft | 486 kts | 332° |
| 2026-05-04 10:52 | 73.76580 | -17.27094 | 38270 ft | 489 kts | 332° |
| 2026-05-04 10:52 | 73.82506 | -17.39112 | 38261 ft | 488 kts | 332° |
| 2026-05-04 10:54 | 74.06048 | -17.87872 | 38271 ft | 481 kts | 332° |
| 2026-05-04 10:56 | 74.29152 | -18.37336 | 38301 ft | 482 kts | 331° |
| 2026-05-04 10:57 | 74.34931 | -18.49964 | 38303 ft | 482 kts | 331° |
| 2026-05-04 10:57 | 74.40669 | -18.62610 | 38313 ft | 483 kts | 330° |
| 2026-05-04 10:58 | 74.46472 | -18.75522 | 38327 ft | 483 kts | 330° |
| 2026-05-04 10:58 | 74.52205 | -18.88384 | 38328 ft | 484 kts | 330° |
| 2026-05-04 10:59 | 74.57969 | -19.01421 | 38337 ft | 484 kts | 330° |
| 2026-05-04 10:59 | 74.63738 | -19.14580 | 38341 ft | 485 kts | 330° |
| 2026-05-04 11:00 | 74.69497 | -19.27834 | 38342 ft | 485 kts | 330° |
| 2026-05-04 11:02 | 74.92573 | -19.82114 | 38363 ft | 487 kts | 329° |
| 2026-05-04 11:05 | 75.35635 | -20.86442 | 38391 ft | 486 kts | 329° |
| 2026-05-04 11:06 | 75.41342 | -21.00757 | 38407 ft | 486 kts | 329° |
| 2026-05-04 11:06 | 75.47046 | -21.15188 | 38424 ft | 486 kts | 329° |
| 2026-05-04 11:10 | 75.86870 | -22.19772 | 38483 ft | 489 kts | 328° |
| 2026-05-04 11:12 | 76.09473 | -22.82330 | 38512 ft | 489 kts | 327° |
| 2026-05-04 11:12 | 76.15102 | -22.98291 | 38510 ft | 489 kts | 327° |
| 2026-05-04 11:13 | 76.20714 | -23.14362 | 38519 ft | 489 kts | 327° |
| 2026-05-04 11:13 | 76.26282 | -23.30465 | 38519 ft | 489 kts | 327° |
| 2026-05-04 11:14 | 76.31874 | -23.46797 | 38524 ft | 489 kts | 327° |
| 2026-05-04 11:16 | 76.54152 | -24.13504 | 38520 ft | 490 kts | 326° |
| 2026-05-04 11:16 | 76.59695 | -24.30525 | 38526 ft | 490 kts | 326° |
| 2026-05-04 11:17 | 76.65224 | -24.47679 | 38540 ft | 490 kts | 326° |
| 2026-05-04 11:19 | 76.87273 | -25.17873 | 38578 ft | 491 kts | 326° |
| 2026-05-04 11:19 | 76.92763 | -25.35803 | 38591 ft | 491 kts | 326° |
| 2026-05-04 11:20 | 76.98247 | -25.53917 | 38605 ft | 492 kts | 325° |
| 2026-05-04 11:20 | 77.03724 | -25.72183 | 38597 ft | 493 kts | 325° |
| 2026-05-04 11:22 | 77.25521 | -26.46901 | 38622 ft | 494 kts | 324° |
| 2026-05-04 11:23 | 77.30959 | -26.66046 | 38625 ft | 495 kts | 324° |
| 2026-05-04 11:25 | 77.49868 | -27.34293 | 38648 ft | 494 kts | 323° |
| 2026-05-04 11:25 | 77.55234 | -27.54151 | 38654 ft | 494 kts | 323° |
| 2026-05-04 11:27 | 77.79202 | -28.45656 | 38670 ft | 494 kts | 322° |
| 2026-05-04 11:28 | 77.84495 | -28.66503 | 38676 ft | 495 kts | 322° |
| 2026-05-04 11:28 | 77.89767 | -28.87509 | 38672 ft | 495 kts | 322° |
| 2026-05-04 11:29 | 77.95031 | -29.08729 | 38676 ft | 495 kts | 321° |
| 2026-05-04 11:29 | 78.00249 | -29.30014 | 38685 ft | 495 kts | 321° |
| 2026-05-04 11:33 | 78.35704 | -30.81506 | 38704 ft | 496 kts | 320° |
| 2026-05-04 11:33 | 78.40822 | -31.04422 | 38711 ft | 495 kts | 320° |
| 2026-05-04 11:34 | 78.45920 | -31.27543 | 38710 ft | 495 kts | 319° |
| 2026-05-04 11:34 | 78.50963 | -31.50696 | 38710 ft | 495 kts | 319° |
| 2026-05-04 11:35 | 78.56019 | -31.74193 | 38716 ft | 495 kts | 319° |
| 2026-05-04 11:35 | 78.61056 | -31.97897 | 38717 ft | 495 kts | 319° |
| 2026-05-04 11:36 | 78.66071 | -32.21795 | 38717 ft | 495 kts | 318° |
| 2026-05-04 11:36 | 78.71070 | -32.45916 | 38715 ft | 495 kts | 318° |
| 2026-05-04 11:37 | 78.76043 | -32.70216 | 38718 ft | 495 kts | 318° |
| 2026-05-04 11:37 | 78.80997 | -32.94736 | 38719 ft | 495 kts | 317° |
| 2026-05-04 11:38 | 78.85935 | -33.19485 | 38720 ft | 495 kts | 317° |
| 2026-05-04 11:38 | 78.90852 | -33.44456 | 38722 ft | 495 kts | 317° |
| 2026-05-04 11:39 | 78.95748 | -33.69645 | 38722 ft | 495 kts | 317° |
| 2026-05-04 11:41 | 79.12737 | -34.59658 | 38719 ft | 496 kts | 316° |
| 2026-05-04 11:41 | 79.17543 | -34.85891 | 38719 ft | 496 kts | 315° |
| 2026-05-04 11:42 | 79.22326 | -35.12355 | 38719 ft | 495 kts | 315° |
| 2026-05-04 11:42 | 79.27083 | -35.39033 | 38721 ft | 495 kts | 315° |
| 2026-05-04 11:43 | 79.31818 | -35.65954 | 38720 ft | 495 kts | 315° |
| 2026-05-04 11:43 | 79.36525 | -35.93075 | 38727 ft | 495 kts | 314° |
| 2026-05-04 11:44 | 79.41185 | -36.20298 | 38714 ft | 495 kts | 314° |
| 2026-05-04 11:44 | 79.45848 | -36.47918 | 38723 ft | 495 kts | 314° |
| 2026-05-04 11:45 | 79.50487 | -36.75776 | 38720 ft | 495 kts | 314° |
| 2026-05-04 11:45 | 79.55099 | -37.03868 | 38719 ft | 495 kts | 313° |
| 2026-05-04 11:46 | 79.59689 | -37.32226 | 38724 ft | 495 kts | 313° |
| 2026-05-04 11:46 | 79.64254 | -37.60824 | 38725 ft | 495 kts | 313° |
| 2026-05-04 11:47 | 79.68793 | -37.89677 | 38727 ft | 495 kts | 312° |
| 2026-05-04 11:47 | 79.73307 | -38.18782 | 38725 ft | 495 kts | 312° |
| 2026-05-04 11:48 | 79.77796 | -38.48149 | 38725 ft | 496 kts | 311° |
| 2026-05-04 11:48 | 79.79598 | -38.60060 | 38720 ft | 496 kts | 311° |
| 2026-05-04 11:49 | 79.84051 | -38.89793 | 38725 ft | 496 kts | 311° |
| 2026-05-04 11:49 | 79.88480 | -39.19801 | 38722 ft | 496 kts | 311° |
| 2026-05-04 11:50 | 79.92883 | -39.50086 | 38723 ft | 496 kts | 310° |
| 2026-05-04 11:50 | 79.97261 | -39.80607 | 38725 ft | 496 kts | 310° |
| 2026-05-04 11:51 | 80.01663 | -40.11163 | 38719 ft | 496 kts | 312° |
| 2026-05-04 11:51 | 80.06260 | -40.40894 | 38729 ft | 496 kts | 313° |